sensor_id;sensor_type;location;lat;lon;timestamp;pressure;altitude;pressure_sealevel;temperature;humidity
40872;BME280;26591;43.264;26.940;2022-08-01T00:00:24;98518.53;;;24.07;45.53
40872;BME280;26591;43.264;26.940;2022-08-01T00:02:49;98515.88;;;24.33;45.76
40872;BME280;26591;43.264;26.940;2022-08-01T00:05:15;98513.16;;;24.28;44.77
40872;BME280;26591;43.264;26.940;2022-08-01T00:07:40;98508.56;;;24.23;44.92
40872;BME280;26591;43.264;26.940;2022-08-01T00:10:15;98513.97;;;24.34;45.42
40872;BME280;26591;43.264;26.940;2022-08-01T00:12:41;98512.91;;;24.56;45.33
40872;BME280;26591;43.264;26.940;2022-08-01T00:15:09;98517.75;;;24.38;45.47
40872;BME280;26591;43.264;26.940;2022-08-01T00:17:35;98514.78;;;24.60;44.28
40872;BME280;26591;43.264;26.940;2022-08-01T00:20:02;98516.41;;;24.61;44.14
40872;BME280;26591;43.264;26.940;2022-08-01T00:22:30;98523.72;;;24.81;45.76
40872;BME280;26591;43.264;26.940;2022-08-01T00:24:56;98520.97;;;24.14;45.13
40872;BME280;26591;43.264;26.940;2022-08-01T00:27:21;98515.41;;;23.62;46.37
40872;BME280;26591;43.264;26.940;2022-08-01T00:29:47;98514.44;;;23.95;46.48
40872;BME280;26591;43.264;26.940;2022-08-01T00:32:12;98506.72;;;23.50;47.64
40872;BME280;26591;43.264;26.940;2022-08-01T00:34:38;98511.19;;;23.24;46.42
40872;BME280;26591;43.264;26.940;2022-08-01T00:37:03;98509.91;;;22.94;47.89
40872;BME280;26591;43.264;26.940;2022-08-01T00:39:29;98500.88;;;23.15;47.27
40872;BME280;26591;43.264;26.940;2022-08-01T00:41:55;98504.25;;;23.38;46.55
40872;BME280;26591;43.264;26.940;2022-08-01T00:44:20;98494.63;;;23.05;47.18
40872;BME280;26591;43.264;26.940;2022-08-01T00:46:46;98501.03;;;22.93;47.91
40872;BME280;26591;43.264;26.940;2022-08-01T00:49:11;98498.47;;;22.71;48.86
40872;BME280;26591;43.264;26.940;2022-08-01T00:51:38;98495.16;;;22.64;48.88
40872;BME280;26591;43.264;26.940;2022-08-01T00:54:04;98497.22;;;22.51;48.76
40872;BME280;26591;43.264;26.940;2022-08-01T00:56:29;98494.97;;;22.76;48.63
40872;BME280;26591;43.264;26.940;2022-08-01T00:58:56;98491.00;;;22.51;49.34
40872;BME280;26591;43.264;26.940;2022-08-01T01:01:22;98486.25;;;22.63;48.96
40872;BME280;26591;43.264;26.940;2022-08-01T01:03:52;98481.34;;;22.55;48.93
40872;BME280;26591;43.264;26.940;2022-08-01T01:12:12;98481.69;;;22.31;50.21
40872;BME280;26591;43.264;26.940;2022-08-01T01:17:21;98466.72;;;22.89;48.56
40872;BME280;26591;43.264;26.940;2022-08-01T01:19:51;98467.56;;;22.94;49.64
40872;BME280;26591;43.264;26.940;2022-08-01T01:27:51;98476.56;;;22.62;49.07
40872;BME280;26591;43.264;26.940;2022-08-01T01:30:19;98491.31;;;22.54;50.16
40872;BME280;26591;43.264;26.940;2022-08-01T01:32:48;98485.72;;;22.66;49.26
40872;BME280;26591;43.264;26.940;2022-08-01T01:35:24;98483.53;;;22.58;50.00
40872;BME280;26591;43.264;26.940;2022-08-01T01:38:28;98483.25;;;23.02;48.95
40872;BME280;26591;43.264;26.940;2022-08-01T01:40:54;98495.66;;;22.98;48.69
40872;BME280;26591;43.264;26.940;2022-08-01T01:43:23;98483.19;;;22.87;48.28
40872;BME280;26591;43.264;26.940;2022-08-01T01:45:50;98481.78;;;22.79;48.90
40872;BME280;26591;43.264;26.940;2022-08-01T01:48:18;98464.56;;;22.91;48.77
40872;BME280;26591;43.264;26.940;2022-08-01T01:50:46;98476.94;;;22.44;50.08
40872;BME280;26591;43.264;26.940;2022-08-01T01:53:13;98464.44;;;22.32;50.28
40872;BME280;26591;43.264;26.940;2022-08-01T01:55:41;98464.72;;;22.03;51.25
40872;BME280;26591;43.264;26.940;2022-08-01T01:58:09;98465.22;;;22.00;51.21
40872;BME280;26591;43.264;26.940;2022-08-01T02:00:38;98468.34;;;22.19;51.30
40872;BME280;26591;43.264;26.940;2022-08-01T02:03:07;98479.47;;;22.28;50.82
40872;BME280;26591;43.264;26.940;2022-08-01T02:05:35;98468.22;;;22.36;49.87
40872;BME280;26591;43.264;26.940;2022-08-01T02:08:03;98463.59;;;22.27;50.48
40872;BME280;26591;43.264;26.940;2022-08-01T02:10:31;98471.03;;;21.87;51.29
40872;BME280;26591;43.264;26.940;2022-08-01T02:12:58;98465.13;;;21.62;51.92
40872;BME280;26591;43.264;26.940;2022-08-01T02:15:26;98464.50;;;21.83;52.10
40872;BME280;26591;43.264;26.940;2022-08-01T02:17:54;98463.88;;;22.30;51.05
40872;BME280;26591;43.264;26.940;2022-08-01T02:20:21;98470.31;;;21.69;51.60
40872;BME280;26591;43.264;26.940;2022-08-01T02:22:52;98452.84;;;21.27;52.59
40872;BME280;26591;43.264;26.940;2022-08-01T02:28:25;98459.28;;;21.04;53.21
40872;BME280;26591;43.264;26.940;2022-08-01T02:30:56;98445.19;;;20.97;53.31
40872;BME280;26591;43.264;26.940;2022-08-01T02:33:27;98450.31;;;20.98;53.26
40872;BME280;26591;43.264;26.940;2022-08-01T02:35:58;98459.16;;;21.16;53.18
40872;BME280;26591;43.264;26.940;2022-08-01T02:38:26;98457.47;;;21.10;52.89
40872;BME280;26591;43.264;26.940;2022-08-01T02:40:55;98458.94;;;21.17;52.91
40872;BME280;26591;43.264;26.940;2022-08-01T02:43:24;98463.09;;;21.53;52.10
40872;BME280;26591;43.264;26.940;2022-08-01T02:45:54;98456.66;;;21.54;52.43
40872;BME280;26591;43.264;26.940;2022-08-01T02:48:22;98472.03;;;21.58;51.76
40872;BME280;26591;43.264;26.940;2022-08-01T02:50:53;98470.34;;;22.02;52.06
40872;BME280;26591;43.264;26.940;2022-08-01T02:53:21;98459.81;;;22.28;50.58
40872;BME280;26591;43.264;26.940;2022-08-01T02:55:49;98460.13;;;22.36;50.67
40872;BME280;26591;43.264;26.940;2022-08-01T02:58:17;98457.00;;;22.45;50.27
40872;BME280;26591;43.264;26.940;2022-08-01T03:00:44;98455.69;;;22.90;49.76
40872;BME280;26591;43.264;26.940;2022-08-01T03:03:11;98453.72;;;23.28;48.53
40872;BME280;26591;43.264;26.940;2022-08-01T03:05:38;98449.97;;;23.35;48.33
40872;BME280;26591;43.264;26.940;2022-08-01T03:08:06;98449.78;;;23.57;47.60
40872;BME280;26591;43.264;26.940;2022-08-01T03:10:35;98447.94;;;23.09;48.70
40872;BME280;26591;43.264;26.940;2022-08-01T03:13:03;98443.44;;;23.25;48.36
40872;BME280;26591;43.264;26.940;2022-08-01T03:15:32;98443.03;;;22.96;49.05
40872;BME280;26591;43.264;26.940;2022-08-01T03:17:59;98443.31;;;23.68;47.64
40872;BME280;26591;43.264;26.940;2022-08-01T03:20:27;98447.09;;;23.67;47.41
40872;BME280;26591;43.264;26.940;2022-08-01T03:22:54;98456.00;;;23.62;46.58
40872;BME280;26591;43.264;26.940;2022-08-01T03:25:21;98459.31;;;23.96;46.77
40872;BME280;26591;43.264;26.940;2022-08-01T03:27:54;98463.09;;;23.95;46.34
40872;BME280;26591;43.264;26.940;2022-08-01T03:30:22;98466.91;;;24.56;45.74
40872;BME280;26591;43.264;26.940;2022-08-01T03:32:48;98456.66;;;25.49;44.69
40872;BME280;26591;43.264;26.940;2022-08-01T03:35:14;98467.69;;;26.08;43.12
40872;BME280;26591;43.264;26.940;2022-08-01T03:37:45;98472.47;;;26.56;42.38
40872;BME280;26591;43.264;26.940;2022-08-01T03:40:21;98471.38;;;27.11;41.63
40872;BME280;26591;43.264;26.940;2022-08-01T03:42:52;98463.56;;;27.29;39.69
40872;BME280;26591;43.264;26.940;2022-08-01T03:45:22;98465.72;;;27.07;40.48
40872;BME280;26591;43.264;26.940;2022-08-01T03:47:50;98456.22;;;27.29;40.03
40872;BME280;26591;43.264;26.940;2022-08-01T03:50:20;98470.91;;;26.79;40.46
40872;BME280;26591;43.264;26.940;2022-08-01T03:52:47;98465.97;;;27.30;41.57
40872;BME280;26591;43.264;26.940;2022-08-01T03:55:15;98464.50;;;27.62;39.53
40872;BME280;26591;43.264;26.940;2022-08-01T03:57:42;98476.25;;;27.96;38.74
40872;BME280;26591;43.264;26.940;2022-08-01T04:00:08;98466.28;;;28.29;38.67
40872;BME280;26591;43.264;26.940;2022-08-01T04:02:35;98456.97;;;28.63;37.60
40872;BME280;26591;43.264;26.940;2022-08-01T04:05:01;98462.47;;;28.91;36.79
40872;BME280;26591;43.264;26.940;2022-08-01T04:07:29;98469.44;;;29.12;36.67
40872;BME280;26591;43.264;26.940;2022-08-01T04:09:55;98470.78;;;29.65;36.02
40872;BME280;26591;43.264;26.940;2022-08-01T04:12:22;98474.47;;;29.97;35.87
40872;BME280;26591;43.264;26.940;2022-08-01T04:14:48;98478.72;;;30.80;35.50
40872;BME280;26591;43.264;26.940;2022-08-01T04:17:14;98484.72;;;31.40;34.40
40872;BME280;26591;43.264;26.940;2022-08-01T04:19:41;98488.06;;;31.28;32.79
40872;BME280;26591;43.264;26.940;2022-08-01T04:22:08;98483.22;;;30.85;34.25
40872;BME280;26591;43.264;26.940;2022-08-01T04:24:36;98460.75;;;30.34;33.80
40872;BME280;26591;43.264;26.940;2022-08-01T04:27:06;98449.97;;;29.83;35.00
40872;BME280;26591;43.264;26.940;2022-08-01T04:29:34;98445.41;;;29.28;35.53
40872;BME280;26591;43.264;26.940;2022-08-01T04:32:02;98448.34;;;28.75;36.10
40872;BME280;26591;43.264;26.940;2022-08-01T04:34:30;98440.94;;;28.62;36.35
40872;BME280;26591;43.264;26.940;2022-08-01T04:36:57;98444.47;;;28.62;35.91
40872;BME280;26591;43.264;26.940;2022-08-01T04:39:28;98446.97;;;28.59;36.37
40872;BME280;26591;43.264;26.940;2022-08-01T04:41:58;98451.59;;;28.44;36.23
40872;BME280;26591;43.264;26.940;2022-08-01T04:44:25;98446.41;;;28.29;36.77
40872;BME280;26591;43.264;26.940;2022-08-01T04:46:53;98442.59;;;28.91;35.78
40872;BME280;26591;43.264;26.940;2022-08-01T04:49:20;98448.28;;;28.14;36.82
40872;BME280;26591;43.264;26.940;2022-08-01T04:51:50;98446.41;;;28.29;37.06
40872;BME280;26591;43.264;26.940;2022-08-01T04:54:16;98450.03;;;28.05;36.81
40872;BME280;26591;43.264;26.940;2022-08-01T04:56:42;98452.09;;;28.46;36.30
40872;BME280;26591;43.264;26.940;2022-08-01T04:59:07;98457.94;;;28.73;35.95
40872;BME280;26591;43.264;26.940;2022-08-01T05:01:51;98449.38;;;28.13;36.51
40872;BME280;26591;43.264;26.940;2022-08-01T05:04:17;98442.78;;;28.95;35.58
40872;BME280;26591;43.264;26.940;2022-08-01T05:06:43;98433.09;;;29.30;34.63
40872;BME280;26591;43.264;26.940;2022-08-01T05:09:09;98439.06;;;30.06;34.41
40872;BME280;26591;43.264;26.940;2022-08-01T05:11:35;98444.94;;;30.76;33.32
40872;BME280;26591;43.264;26.940;2022-08-01T05:14:00;98446.81;;;30.98;32.74
40872;BME280;26591;43.264;26.940;2022-08-01T05:16:26;98438.66;;;30.67;32.67
40872;BME280;26591;43.264;26.940;2022-08-01T05:18:51;98429.19;;;29.73;33.87
40872;BME280;26591;43.264;26.940;2022-08-01T05:21:17;98438.44;;;30.32;33.49
40872;BME280;26591;43.264;26.940;2022-08-01T05:23:42;98443.66;;;29.60;33.67
40872;BME280;26591;43.264;26.940;2022-08-01T05:26:09;98426.47;;;28.95;34.71
40872;BME280;26591;43.264;26.940;2022-08-01T05:28:35;98422.66;;;28.82;34.91
40872;BME280;26591;43.264;26.940;2022-08-01T05:31:00;98432.50;;;29.05;35.37
40872;BME280;26591;43.264;26.940;2022-08-01T05:33:26;98439.78;;;29.10;34.70
40872;BME280;26591;43.264;26.940;2022-08-01T05:35:52;98422.13;;;28.93;34.37
40872;BME280;26591;43.264;26.940;2022-08-01T05:38:19;98427.56;;;28.93;34.84
40872;BME280;26591;43.264;26.940;2022-08-01T05:40:44;98438.91;;;28.54;35.43
40872;BME280;26591;43.264;26.940;2022-08-01T05:43:10;98444.38;;;28.68;35.74
40872;BME280;26591;43.264;26.940;2022-08-01T05:45:36;98426.13;;;28.21;35.85
40872;BME280;26591;43.264;26.940;2022-08-01T05:48:02;98430.13;;;27.91;35.78
40872;BME280;26591;43.264;26.940;2022-08-01T05:50:28;98434.69;;;28.14;36.44
40872;BME280;26591;43.264;26.940;2022-08-01T05:52:55;98431.91;;;28.95;34.76
40872;BME280;26591;43.264;26.940;2022-08-01T05:55:22;98434.13;;;29.34;34.49
40872;BME280;26591;43.264;26.940;2022-08-01T05:57:47;98437.97;;;29.70;34.22
40872;BME280;26591;43.264;26.940;2022-08-01T06:00:13;98424.91;;;29.81;33.12
40872;BME280;26591;43.264;26.940;2022-08-01T06:02:44;98446.03;;;30.12;33.49
40872;BME280;26591;43.264;26.940;2022-08-01T06:05:09;98438.66;;;30.67;32.39
40872;BME280;26591;43.264;26.940;2022-08-01T06:07:35;98441.53;;;30.39;32.54
40872;BME280;26591;43.264;26.940;2022-08-01T06:10:02;98445.66;;;30.27;32.92
40872;BME280;26591;43.264;26.940;2022-08-01T06:12:27;98434.69;;;30.50;31.67
40872;BME280;26591;43.264;26.940;2022-08-01T06:14:53;98429.75;;;29.84;32.67
40872;BME280;26591;43.264;26.940;2022-08-01T06:17:18;98441.00;;;30.05;32.46
40872;BME280;26591;43.264;26.940;2022-08-01T06:19:44;98432.69;;;30.65;31.79
40872;BME280;26591;43.264;26.940;2022-08-01T06:22:09;98433.47;;;30.56;31.53
40872;BME280;26591;43.264;26.940;2022-08-01T06:24:35;98431.06;;;31.04;30.40
40872;BME280;26591;43.264;26.940;2022-08-01T06:27:01;98429.56;;;30.49;32.00
40872;BME280;26591;43.264;26.940;2022-08-01T06:29:30;98424.50;;;29.88;32.49
40872;BME280;26591;43.264;26.940;2022-08-01T06:31:55;98414.03;;;30.04;32.32
40872;BME280;26591;43.264;26.940;2022-08-01T06:34:21;98417.47;;;29.22;33.70
40872;BME280;26591;43.264;26.940;2022-08-01T06:36:47;98428.94;;;29.83;32.38
40872;BME280;26591;43.264;26.940;2022-08-01T06:39:12;98431.41;;;29.94;32.48
40872;BME280;26591;43.264;26.940;2022-08-01T06:41:38;98425.69;;;29.95;32.67
40872;BME280;26591;43.264;26.940;2022-08-01T06:44:06;98424.59;;;29.96;32.45
40872;BME280;26591;43.264;26.940;2022-08-01T06:46:32;98427.91;;;30.16;32.08
40872;BME280;26591;43.264;26.940;2022-08-01T06:48:58;98411.47;;;29.34;33.04
40872;BME280;26591;43.264;26.940;2022-08-01T06:51:23;98421.94;;;29.68;33.26
40872;BME280;26591;43.264;26.940;2022-08-01T06:53:49;98414.53;;;30.06;32.48
40872;BME280;26591;43.264;26.940;2022-08-01T06:56:14;98406.84;;;29.85;32.62
40872;BME280;26591;43.264;26.940;2022-08-01T06:58:40;98405.59;;;30.14;32.70
40872;BME280;26591;43.264;26.940;2022-08-01T07:01:05;98403.88;;;29.95;32.70
40872;BME280;26591;43.264;26.940;2022-08-01T07:03:33;98403.53;;;29.74;33.21
40872;BME280;26591;43.264;26.940;2022-08-01T07:05:58;98399.72;;;30.21;32.32
40872;BME280;26591;43.264;26.940;2022-08-01T07:08:24;98398.16;;;29.83;32.53
40872;BME280;26591;43.264;26.940;2022-08-01T07:10:49;98386.09;;;29.38;33.53
40872;BME280;26591;43.264;26.940;2022-08-01T07:13:15;98387.97;;;29.75;32.84
40872;BME280;26591;43.264;26.940;2022-08-01T07:15:46;98382.84;;;29.22;33.58
40872;BME280;26591;43.264;26.940;2022-08-01T07:18:11;98384.50;;;29.10;33.97
40872;BME280;26591;43.264;26.940;2022-08-01T07:20:37;98380.63;;;29.24;34.03
40872;BME280;26591;43.264;26.940;2022-08-01T07:23:03;98382.16;;;29.17;34.10
40872;BME280;26591;43.264;26.940;2022-08-01T07:25:29;98389.56;;;29.53;33.83
40872;BME280;26591;43.264;26.940;2022-08-01T07:27:54;98391.56;;;29.61;33.10
40872;BME280;26591;43.264;26.940;2022-08-01T07:30:20;98392.03;;;29.41;33.12
40872;BME280;26591;43.264;26.940;2022-08-01T07:32:46;98387.00;;;29.20;34.15
40872;BME280;26591;43.264;26.940;2022-08-01T07:35:12;98391.59;;;29.33;34.03
40872;BME280;26591;43.264;26.940;2022-08-01T07:37:37;98395.88;;;29.40;34.56
40872;BME280;26591;43.264;26.940;2022-08-01T07:40:03;98388.59;;;29.35;33.87
40872;BME280;26591;43.264;26.940;2022-08-01T07:42:31;98386.25;;;29.28;34.04
40872;BME280;26591;43.264;26.940;2022-08-01T07:44:56;98388.44;;;28.75;34.78
40872;BME280;26591;43.264;26.940;2022-08-01T07:47:25;98385.47;;;28.44;35.40
40872;BME280;26591;43.264;26.940;2022-08-01T07:49:58;98375.13;;;28.88;35.42
40872;BME280;26591;43.264;26.940;2022-08-01T07:52:24;98376.66;;;28.94;34.72
40872;BME280;26591;43.264;26.940;2022-08-01T07:54:49;98381.97;;;29.13;34.12
40872;BME280;26591;43.264;26.940;2022-08-01T07:57:15;98381.03;;;29.32;34.12
40872;BME280;26591;43.264;26.940;2022-08-01T07:59:40;98381.91;;;29.55;34.11
40872;BME280;26591;43.264;26.940;2022-08-01T08:02:06;98386.25;;;30.24;33.10
40872;BME280;26591;43.264;26.940;2022-08-01T08:04:31;98392.06;;;29.86;33.22
40872;BME280;26591;43.264;26.940;2022-08-01T08:06:56;98378.84;;;29.57;33.92
40872;BME280;26591;43.264;26.940;2022-08-01T08:09:22;98387.06;;;29.43;34.18
40872;BME280;26591;43.264;26.940;2022-08-01T08:11:48;98402.28;;;29.80;33.94
40872;BME280;26591;43.264;26.940;2022-08-01T08:14:14;98377.28;;;29.42;33.95
40872;BME280;26591;43.264;26.940;2022-08-01T08:16:42;98396.97;;;29.38;34.77
40872;BME280;26591;43.264;26.940;2022-08-01T08:19:08;98393.50;;;29.47;34.22
40872;BME280;26591;43.264;26.940;2022-08-01T08:21:33;98385.16;;;29.43;34.36
40872;BME280;26591;43.264;26.940;2022-08-01T08:23:59;98407.59;;;29.12;34.59
40872;BME280;26591;43.264;26.940;2022-08-01T08:26:42;98387.81;;;29.34;34.23
40872;BME280;26591;43.264;26.940;2022-08-01T08:29:08;98396.06;;;29.43;34.12
40872;BME280;26591;43.264;26.940;2022-08-01T08:31:33;98386.38;;;29.23;34.21
40872;BME280;26591;43.264;26.940;2022-08-01T08:33:59;98386.63;;;28.99;34.98
40872;BME280;26591;43.264;26.940;2022-08-01T08:36:24;98397.91;;;29.06;34.81
40872;BME280;26591;43.264;26.940;2022-08-01T08:38:50;98389.16;;;28.95;34.93
40872;BME280;26591;43.264;26.940;2022-08-01T08:41:16;98388.69;;;29.30;34.65
40872;BME280;26591;43.264;26.940;2022-08-01T08:43:44;98398.00;;;29.88;33.59
40872;BME280;26591;43.264;26.940;2022-08-01T08:46:11;98393.31;;;30.03;33.87
40872;BME280;26591;43.264;26.940;2022-08-01T08:48:39;98404.38;;;29.97;34.02
40872;BME280;26591;43.264;26.940;2022-08-01T08:51:05;98398.75;;;29.80;33.70
40872;BME280;26591;43.264;26.940;2022-08-01T08:53:35;98405.09;;;30.12;33.63
40872;BME280;26591;43.264;26.940;2022-08-01T08:56:02;98395.91;;;29.62;34.02
40872;BME280;26591;43.264;26.940;2022-08-01T08:58:28;98400.91;;;29.69;34.10
40872;BME280;26591;43.264;26.940;2022-08-01T09:00:54;98388.59;;;29.94;33.67
40872;BME280;26591;43.264;26.940;2022-08-01T09:03:20;98408.31;;;29.91;34.36
40872;BME280;26591;43.264;26.940;2022-08-01T09:05:45;98408.94;;;30.11;33.72
40872;BME280;26591;43.264;26.940;2022-08-01T09:08:11;98408.94;;;30.11;34.04
40872;BME280;26591;43.264;26.940;2022-08-01T09:10:37;98397.03;;;30.61;33.91
40872;BME280;26591;43.264;26.940;2022-08-01T09:13:11;98410.28;;;30.54;33.27
40872;BME280;26591;43.264;26.940;2022-08-01T09:15:48;98409.59;;;30.71;33.10
40872;BME280;26591;43.264;26.940;2022-08-01T09:18:34;98414.38;;;31.05;33.05
40872;BME280;26591;43.264;26.940;2022-08-01T09:23:54;98401.75;;;30.47;34.61
40872;BME280;26591;43.264;26.940;2022-08-01T09:26:30;98404.59;;;30.64;33.75
40872;BME280;26591;43.264;26.940;2022-08-01T09:28:56;98406.09;;;30.48;34.20
40872;BME280;26591;43.264;26.940;2022-08-01T09:31:21;98403.53;;;30.51;34.14
40872;BME280;26591;43.264;26.940;2022-08-01T09:33:59;98409.00;;;30.51;33.97
40872;BME280;26591;43.264;26.940;2022-08-01T09:36:50;98402.88;;;30.77;33.65
40872;BME280;26591;43.264;26.940;2022-08-01T09:39:24;98402.59;;;30.87;34.48
40872;BME280;26591;43.264;26.940;2022-08-01T09:41:53;98409.97;;;30.87;34.00
40872;BME280;26591;43.264;26.940;2022-08-01T09:44:19;98407.66;;;30.71;33.80
40872;BME280;26591;43.264;26.940;2022-08-01T09:46:55;98405.59;;;31.17;33.48
40872;BME280;26591;43.264;26.940;2022-08-01T09:49:32;98403.34;;;31.28;34.01
40872;BME280;26591;43.264;26.940;2022-08-01T09:52:10;98398.38;;;31.57;33.32
40872;BME280;26591;43.264;26.940;2022-08-01T09:54:36;98393.41;;;31.68;33.43
40872;BME280;26591;43.264;26.940;2022-08-01T09:57:10;98399.69;;;31.86;33.22
40872;BME280;26591;43.264;26.940;2022-08-01T09:59:37;98398.88;;;31.59;33.49
40872;BME280;26591;43.264;26.940;2022-08-01T10:02:05;98407.22;;;31.36;34.12
40872;BME280;26591;43.264;26.940;2022-08-01T10:04:31;98413.31;;;31.42;34.61
40872;BME280;26591;43.264;26.940;2022-08-01T10:07:04;98421.44;;;31.07;36.16
40872;BME280;26591;43.264;26.940;2022-08-01T10:09:33;98415.34;;;31.01;35.91
40872;BME280;26591;43.264;26.940;2022-08-01T10:12:03;98417.50;;;31.39;35.59
40872;BME280;26591;43.264;26.940;2022-08-01T10:14:29;98410.59;;;31.59;36.33
40872;BME280;26591;43.264;26.940;2022-08-01T10:16:59;98407.91;;;31.86;35.23
40872;BME280;26591;43.264;26.940;2022-08-01T10:19:27;98405.66;;;31.70;34.35
40872;BME280;26591;43.264;26.940;2022-08-01T10:21:54;98412.69;;;31.36;35.16
40872;BME280;26591;43.264;26.940;2022-08-01T10:24:20;98416.97;;;30.70;35.86
40872;BME280;26591;43.264;26.940;2022-08-01T10:27:04;98413.66;;;30.19;37.16
40872;BME280;26591;43.264;26.940;2022-08-01T10:29:36;98418.47;;;30.54;36.88
40872;BME280;26591;43.264;26.940;2022-08-01T10:32:04;98410.69;;;31.10;37.15
40872;BME280;26591;43.264;26.940;2022-08-01T10:34:31;98405.13;;;31.50;36.23
40872;BME280;26591;43.264;26.940;2022-08-01T10:36:57;98415.03;;;31.11;35.92
40872;BME280;26591;43.264;26.940;2022-08-01T10:39:22;98403.94;;;31.08;35.47
40872;BME280;26591;43.264;26.940;2022-08-01T10:41:49;98402.13;;;31.03;35.72
40872;BME280;26591;43.264;26.940;2022-08-01T10:44:15;98404.09;;;31.11;35.84
40872;BME280;26591;43.264;26.940;2022-08-01T10:46:45;98400.34;;;30.81;36.54
40872;BME280;26591;43.264;26.940;2022-08-01T10:49:16;98395.91;;;30.62;36.79
40872;BME280;26591;43.264;26.940;2022-08-01T10:51:43;98392.53;;;30.02;37.62
40872;BME280;26591;43.264;26.940;2022-08-01T10:54:11;98399.50;;;30.17;38.13
40872;BME280;26591;43.264;26.940;2022-08-01T10:56:46;98405.78;;;30.89;37.02
40872;BME280;26591;43.264;26.940;2022-08-01T10:59:27;98391.50;;;30.93;36.65
40872;BME280;26591;43.264;26.940;2022-08-01T11:02:00;98393.09;;;30.85;35.56
40872;BME280;26591;43.264;26.940;2022-08-01T11:07:17;98388.09;;;29.69;38.86
40872;BME280;26591;43.264;26.940;2022-08-01T11:09:47;98386.16;;;29.70;38.04
40872;BME280;26591;43.264;26.940;2022-08-01T11:12:38;98385.06;;;29.48;38.04
40872;BME280;26591;43.264;26.940;2022-08-01T11:17:39;98390.25;;;29.59;38.52
40872;BME280;26591;43.264;26.940;2022-08-01T11:20:10;98375.56;;;29.46;38.61
40872;BME280;26591;43.264;26.940;2022-08-01T11:38:39;98378.41;;;29.13;38.87
40872;BME280;26591;43.264;26.940;2022-08-01T11:41:16;98377.06;;;28.87;39.97
40872;BME280;26591;43.264;26.940;2022-08-01T11:44:08;98368.44;;;29.22;39.39
40872;BME280;26591;43.264;26.940;2022-08-01T11:47:00;98368.63;;;29.26;39.22
40872;BME280;26591;43.264;26.940;2022-08-01T11:51:58;98379.41;;;29.31;39.25
40872;BME280;26591;43.264;26.940;2022-08-01T11:54:28;98373.22;;;29.53;38.29
40872;BME280;26591;43.264;26.940;2022-08-01T11:56:59;98370.34;;;29.58;38.66
40872;BME280;26591;43.264;26.940;2022-08-01T11:59:25;98374.59;;;29.64;38.25
40872;BME280;26591;43.264;26.940;2022-08-01T12:01:51;98371.97;;;29.59;38.63
40872;BME280;26591;43.264;26.940;2022-08-01T12:04:17;98370.25;;;29.41;38.40
40872;BME280;26591;43.264;26.940;2022-08-01T12:06:42;98369.91;;;29.28;38.28
40872;BME280;26591;43.264;26.940;2022-08-01T12:09:18;98369.78;;;29.11;38.67
40872;BME280;26591;43.264;26.940;2022-08-01T12:11:44;98372.88;;;29.18;39.21
40872;BME280;26591;43.264;26.940;2022-08-01T12:14:15;98368.28;;;29.27;39.40
40872;BME280;26591;43.264;26.940;2022-08-01T12:16:48;98369.38;;;29.77;39.19
40872;BME280;26591;43.264;26.940;2022-08-01T12:19:22;98365.81;;;30.13;38.57
40872;BME280;26591;43.264;26.940;2022-08-01T12:22:10;98361.31;;;30.17;38.43
40872;BME280;26591;43.264;26.940;2022-08-01T12:24:38;98351.78;;;30.06;38.30
40872;BME280;26591;43.264;26.940;2022-08-01T12:27:05;98356.78;;;30.12;37.58
40872;BME280;26591;43.264;26.940;2022-08-01T12:29:42;98354.44;;;30.20;38.16
40872;BME280;26591;43.264;26.940;2022-08-01T12:34:53;98355.63;;;30.05;38.48
40872;BME280;26591;43.264;26.940;2022-08-01T12:37:19;98351.16;;;30.09;38.63
40872;BME280;26591;43.264;26.940;2022-08-01T12:39:45;98351.91;;;30.01;38.77
40872;BME280;26591;43.264;26.940;2022-08-01T12:42:14;98352.94;;;29.68;39.15
40872;BME280;26591;43.264;26.940;2022-08-01T12:44:41;98349.88;;;30.06;39.10
40872;BME280;26591;43.264;26.940;2022-08-01T12:47:08;98342.25;;;30.57;38.13
40872;BME280;26591;43.264;26.940;2022-08-01T12:49:36;98344.19;;;30.57;37.60
40872;BME280;26591;43.264;26.940;2022-08-01T12:52:03;98339.81;;;30.16;38.49
40872;BME280;26591;43.264;26.940;2022-08-01T12:54:29;98332.19;;;30.04;38.70
40872;BME280;26591;43.264;26.940;2022-08-01T12:56:55;98333.06;;;29.90;38.88
40872;BME280;26591;43.264;26.940;2022-08-01T12:59:21;98349.19;;;29.78;38.39
40872;BME280;26591;43.264;26.940;2022-08-01T13:01:49;98344.72;;;29.59;37.90
40872;BME280;26591;43.264;26.940;2022-08-01T13:04:14;98341.88;;;29.64;37.96
40872;BME280;26591;43.264;26.940;2022-08-01T13:06:40;98337.88;;;29.71;38.21
40872;BME280;26591;43.264;26.940;2022-08-01T13:09:09;98354.66;;;29.55;38.01
40872;BME280;26591;43.264;26.940;2022-08-01T13:11:37;98343.66;;;29.46;38.54
40872;BME280;26591;43.264;26.940;2022-08-01T13:14:03;98348.53;;;29.35;38.66
40872;BME280;26591;43.264;26.940;2022-08-01T13:16:29;98347.94;;;29.38;38.50
40872;BME280;26591;43.264;26.940;2022-08-01T13:18:56;98340.94;;;29.69;38.01
40872;BME280;26591;43.264;26.940;2022-08-01T13:21:27;98340.88;;;30.06;38.33
40872;BME280;26591;43.264;26.940;2022-08-01T13:24:10;98342.09;;;30.63;37.13
40872;BME280;26591;43.264;26.940;2022-08-01T13:26:50;98339.00;;;31.04;36.84
40872;BME280;26591;43.264;26.940;2022-08-01T13:29:20;98331.94;;;31.12;36.10
40872;BME280;26591;43.264;26.940;2022-08-01T13:31:48;98328.75;;;31.45;35.23
40872;BME280;26591;43.264;26.940;2022-08-01T13:34:14;98335.66;;;31.60;35.68
40872;BME280;26591;43.264;26.940;2022-08-01T13:36:41;98330.69;;;31.54;35.25
40872;BME280;26591;43.264;26.940;2022-08-01T13:39:07;98333.25;;;31.68;35.64
40872;BME280;26591;43.264;26.940;2022-08-01T13:41:52;98333.72;;;31.78;35.21